Latest Coastal Weather Observations for Cape Sorell

IDT60701

Issued at 7:55 pm EST Friday 29 August 2014 (issued every 10 minutes, with the page automatically refreshed every 10 minutes)

About coastal observations | Map of coastal stations | Coastal observations for TAS | Marine services | Other Formats
Station Details ID: 097000 Name: CAPE SORELL Lat: -42.20 Lon: 145.17 Height: 19.3 m
Data from the previous 72 hours. | See also: Recent months at Cape Sorell
Date/Time
EST
Temp

°C
Wind Pressure Rain
since 9am
mm
Weather Cloud Vis
km
Sea
Height
m
Swell
Dir
 
Speed
knots
Gust
knots
hPa Trend Height
m
Period
s
Dir
29/07:30pm 11.9 CALM 0 0 1028.6 - 0.0 - - - - - - -
29/07:00pm 11.9 CALM 0 0 1028.6 - 0.0 - - - - - - -
29/06:30pm 11.6 CALM 0 0 1028.5 - 0.0 - - - - - - -
29/06:00pm 12.6 CALM 0 0 1028.3 - 0.0 - - - - - - -
29/05:30pm 13.4 WNW 1 2 1028.3 - 0.0 - - - - - - -
29/05:00pm 13.8 W 3 4 1028.3 - 0.0 - - - - - - -
29/04:30pm 14.5 WSW 4 5 1028.2 - 0.0 - - - - - - -
29/04:00pm 15.1 W 4 6 1028.1 - 0.0 - - - - - - -
29/03:30pm 15.2 WSW 6 9 1028.2 - 0.0 - - - - - - -
29/03:00pm 15.7 W 7 10 1028.3 - 0.0 - - - - - - -
29/02:30pm 16.0 W 7 9 1028.3 - 0.0 - - - - - - -
29/02:00pm 16.6 W 5 7 1028.6 - 0.0 - - - - - - -
29/01:30pm 16.6 NW 5 7 1028.7 - 0.0 - - - - - - -
29/01:00pm 16.2 NNW 4 6 1028.8 - 0.0 - - - - - - -
29/12:30pm 17.1 WNW 5 7 1029.3 - 0.0 - - - - - - -
29/12:00pm 16.3 N 4 5 1029.5 - 0.0 - - - - - - -
29/11:30am 16.0 N 4 6 1029.5 - 0.0 - - - - - - -
29/11:00am 15.2 N 6 8 1029.4 - 0.0 - - - - - - -
29/10:30am 13.9 NNE 8 9 1029.4 - 0.0 - - - - - - -
29/10:00am 13.2 NNE 9 11 1029.4 - 0.0 - - - - - - -
29/09:30am 12.6 NE 9 11 1029.5 - 0.0 - - - - - - -
29/09:00am 12.4 NE 8 11 1029.4 - 0.0 - - - - - - -
29/08:30am 11.3 ENE 7 9 1029.2 - 0.0 - - - - - - -
29/08:00am 10.1 ENE 7 9 1028.9 - 0.0 - - - - - - -
29/07:30am 9.8 ENE 8 10 1028.8 - 0.0 - - - - - - -
29/07:00am 10.0 NE 8 11 1028.5 - 0.0 - - - - - - -
29/06:30am 9.7 ENE 7 9 1028.4 - 0.0 - - - - - - -
29/06:00am 10.5 NE 8 11 1028.3 - 0.0 - - - - - - -
29/05:30am 10.9 NNE 9 10 1028.1 - 0.0 - - - - - - -
29/05:00am 10.7 NNE 9 10 1028.0 - 0.0 - - - - - - -
29/04:30am 10.4 NNE 8 10 1028.0 - 0.0 - - - - - - -
29/04:00am 10.5 NNE 9 11 1027.7 - 0.0 - - - - - - -
29/03:30am 10.6 NNE 8 10 1027.6 - 0.0 - - - - - - -
29/03:00am 10.8 NNE 9 11 1027.5 - 0.0 - - - - - - -
29/02:30am 10.7 NNE 9 10 1027.7 - 0.0 - - - - - - -
29/02:00am 11.2 NNE 12 14 1027.8 - 0.0 - - - - - - -
29/01:30am 11.3 NNE 10 13 1028.1 - 0.0 - - - - - - -
29/01:00am 11.7 NNE 9 10 1028.2 - 0.0 - - - - - - -
29/12:30am 11.8 N 10 11 1028.4 - 0.0 - - - - - - -
29/12:00am 12.1 N 11 13 1028.2 - 0.0 - - - - - - -
 
Date/Time
EST
Temp

°C
Wind Pressure Rain
since 9am
mm
Weather Cloud Vis
km
Sea
Height
m
Swell
Dir
 
Speed
knots
Gust
knots
hPa Trend Height
m
Period
s
Dir
28/11:30pm 11.9 N 9 11 1028.2 - 0.0 - - - - - - -
28/11:00pm 12.0 N 10 12 1028.0 - 0.0 - - - - - - -
28/10:30pm 12.3 N 9 10 1028.1 - 0.0 - - - - - - -
28/10:00pm 12.2 NNW 8 10 1028.2 - 0.0 - - - - - - -
28/09:30pm 12.1 N 9 11 1028.1 - 0.0 - - - - - - -
28/09:00pm 12.9 N 11 13 1028.0 - 0.0 - - - - - - -
28/08:30pm 12.8 N 8 11 1028.0 - 0.0 - - - - - - -
28/08:00pm 12.9 NNW 8 10 1027.9 - 0.0 - - - - - - -
28/07:30pm 12.9 NW 5 7 1027.8 - 0.0 - - - - - - -
28/07:00pm 13.2 NW 5 8 1027.8 - 0.0 - - - - - - -
28/06:30pm 13.2 NW 5 6 1027.7 - 0.0 - - - - - - -
28/06:00pm 13.2 NW 5 6 1027.4 - 0.0 - - - - - - -
28/05:30pm 13.3 WNW 7 9 1027.1 - 0.0 - - - - - - -
28/05:00pm 13.6 WNW 8 10 1027.0 - 0.0 - - - - - - -
28/04:30pm 13.9 W 9 12 1026.9 - 0.0 - - - - - - -
28/04:00pm 14.4 W 9 12 1026.5 - 0.0 - - - - - - -
28/03:30pm 15.3 W 8 11 1026.3 - 0.0 - - - - - - -
28/03:00pm 15.9 W 4 6 1026.4 - 0.0 - - - - - - -
28/02:30pm 17.2 W 4 6 1026.5 - 0.0 - - - - - - -
28/02:00pm 16.4 NNW 4 4 1026.6 - 0.0 - - - - - - -
28/01:30pm 16.8 WNW 6 8 1026.9 - 0.0 - - - - - - -
28/01:00pm 17.4 NW 6 8 1027.2 - 0.0 - - - - - - -
28/12:30pm 16.2 NNW 6 9 1027.7 - 0.0 - - - - - - -
28/12:00pm 15.7 NW 7 9 1027.9 - 0.0 - - - - - - -
28/11:30am 15.0 NNW 5 7 1028.3 - 0.0 - - - - - - -
28/11:00am 15.1 N 4 5 1028.4 - 0.0 - - - - - - -
28/10:30am 12.6 NNE 8 9 1028.6 - 0.0 - - - - - - -
28/10:00am 12.3 NNE 9 11 1028.7 - 0.0 - - - - - - -
28/09:30am 11.9 NNE 8 10 1028.8 - 0.0 - - - - - - -
28/09:00am 11.5 NE 7 9 1028.8 - 0.0 - - - - - - -
28/08:30am 10.9 NE 7 9 1028.8 - 0.0 - - - - - - -
28/08:00am 10.7 NE 5 7 1028.7 - 0.0 - - - - - - -
28/07:30am 10.8 NE 7 9 1028.4 - 0.0 - - - - - - -
28/07:00am 11.5 NE 8 10 1028.2 - 0.0 - - - - - - -
28/06:30am 12.4 N 10 12 1027.8 - 0.0 - - - - - - -
28/06:00am 12.4 N 10 12 1027.7 - 0.0 - - - - - - -
28/05:30am 12.2 N 11 13 1027.6 - 0.0 - - - - - - -
28/05:00am 12.1 N 11 14 1027.7 - 0.0 - - - - - - -
28/04:30am 12.2 N 10 13 1027.7 - 0.0 - - - - - - -
28/04:00am 12.3 NNW 10 13 1027.7 - 0.0 - - - - - - -
28/03:30am 12.3 NNW 10 15 1027.7 - 0.0 - - - - - - -
28/03:00am 12.0 NNW 6 9 1027.6 - 0.0 - - - - - - -
28/02:30am 12.2 N 7 9 1027.7 - 0.0 - - - - - - -
28/02:00am 11.7 N 1 3 1027.9 - 0.0 - - - - - - -
28/01:30am 11.9 N 4 5 1027.9 - 0.0 - - - - - - -
28/01:00am 11.9 N 4 5 1028.0 - 0.0 - - - - - - -
28/12:30am 12.0 NNE 5 6 1027.9 - 0.0 - - - - - - -
28/12:00am 12.7 NE 9 11 1028.1 - 0.0 - - - - - - -
 
Date/Time
EST
Temp

°C
Wind Pressure Rain
since 9am
mm
Weather Cloud Vis
km
Sea
Height
m
Swell
Dir
 
Speed
knots
Gust
knots
hPa Trend Height
m
Period
s
Dir
27/11:30pm 12.7 NNE 11 13 1027.8 - 0.0 - - - - - - -
27/11:00pm 13.0 N 10 12 1028.4 - 0.0 - - - - - - -
27/10:30pm 12.6 NNE 8 10 1028.6 - 0.0 - - - - - - -
27/10:00pm 12.4 NE 1 3 1029.0 - 0.0 - - - - - - -
27/09:30pm 13.2 NE 7 10 1028.4 - 0.0 - - - - - - -
27/09:00pm 13.2 W 6 10 1028.8 - 0.0 - - - - - - -
27/08:30pm 13.2 W 7 9 1028.6 - 0.0 - - - - - - -
27/08:00pm 13.2 WSW 7 8 1028.4 - 0.0 - - - - - - -
27/07:30pm 13.1 SSW 4 5 1028.1 - 0.0 - - - - - - -
27/07:00pm 12.9 S 2 3 1027.9 - 0.0 - - - - - - -
27/06:30pm 13.2 SW 2 3 1027.6 - 0.0 - - - - - - -
27/06:00pm 13.5 W 1 2 1027.2 - 0.0 - - - - - - -
27/05:30pm 13.6 W 2 3 1026.9 - 0.0 - - - - - - -
27/05:00pm 13.8 N 3 5 1026.7 - 0.0 - - - - - - -
27/04:30pm 14.1 N 11 14 1026.3 - 0.0 - - - - - - -
27/04:00pm 14.7 N 7 10 1026.4 - 0.0 - - - - - - -
27/03:30pm 16.1 WNW 8 11 1026.5 - 0.0 - - - - - - -
27/03:00pm 16.5 W 5 8 1026.5 - 0.0 - - - - - - -
27/02:30pm 16.3 W 6 9 1026.6 - 0.0 - - - - - - -
27/02:00pm 17.5 W 5 6 1026.6 - 0.0 - - - - - - -
27/01:30pm 17.5 NW 5 7 1026.8 - 0.0 - - - - - - -
27/01:00pm 16.2 W 8 12 1027.0 - 0.0 - - - - - - -
27/12:30pm 16.9 W 6 10 1027.0 - 0.0 - - - - - - -
27/12:00pm 17.3 W 5 6 1027.1 - 0.0 - - - - - - -
27/11:30am 16.4 N 9 12 1026.8 - 0.0 - - - - - - -
27/11:00am 15.7 N 10 13 1026.9 - 0.0 - - - - - - -
27/10:30am 15.6 N 11 13 1027.3 - 0.0 - - - - - - -
27/10:00am 15.2 N 10 13 1027.6 - 0.0 - - - - - - -
27/09:30am 14.4 N 16 17 1027.1 - 0.0 - - - - - - -
27/09:00am 13.9 N 16 19 1027.1 - 0.2 - - - - - - -
27/08:30am 13.4 N 20 23 1026.8 - 0.2 - - - - - - -
27/08:00am 13.0 N 15 21 1027.1 - 0.2 - - - - - - -
27/07:56am 12.8 N 15 19 1027.0 - 0.2 - - - - - - -
27/07:30am 11.0 NNE 7 8 1027.4 - 0.2 - - - - - - -
27/07:00am 11.2 NNE 4 8 1027.3 - 0.2 - - - - - - -
27/06:30am 11.5 N 4 8 1027.0 - 0.2 - - - - - - -
27/06:00am 12.4 NNW 8 12 1026.6 - 0.2 - - - - - - -
27/05:30am 12.7 N 11 15 1026.5 - 0.2 - - - - - - -
27/05:00am 13.1 N 14 17 1026.6 - 0.2 - - - - - - -
27/04:30am 13.1 N 15 19 1026.3 - 0.2 - - - - - - -
27/04:00am 13.1 N 16 20 1026.2 - 0.2 - - - - - - -
27/03:30am 13.2 N 19 22 1026.0 - 0.2 - - - - - - -
27/03:00am 13.2 N 17 20 1026.5 - 0.2 - - - - - - -
27/02:30am 13.0 N 15 20 1026.7 - 0.2 - - - - - - -
27/02:00am 12.4 N 9 11 1027.0 - 0.2 - - - - - - -
27/01:30am 12.3 NNW 7 9 1027.4 - 0.2 - - - - - - -
27/01:00am 12.5 N 8 11 1027.4 - 0.2 - - - - - - -
27/12:30am 12.8 N 10 13 1027.5 - 0.2 - - - - - - -
27/12:00am 12.7 NNW 8 11 1028.0 - 0.2 - - - - - - -
 
Date/Time
EST
Temp

°C
Wind Pressure Rain
since 9am
mm
Weather Cloud Vis
km
Sea
Height
m
Swell
Dir
 
Speed
knots
Gust
knots
hPa Trend Height
m
Period
s
Dir
26/11:30pm 13.2 N 15 17 1027.9 - 0.2 - - - - - - -
26/11:00pm 13.0 N 13 17 1027.8 - 0.2 - - - - - - -
26/10:30pm 12.9 N 14 18 1027.8 - 0.2 - - - - - - -
26/10:00pm 12.0 NNE 6 9 1027.9 - 0.2 - - - - - - -
26/09:30pm 11.6 NNE 3 6 1028.0 - 0.2 - - - - - - -
26/09:00pm 11.2 NE 4 5 1027.9 - 0.2 - - - - - - -
26/08:30pm 11.4 NE 4 5 1028.0 - 0.2 - - - - - - -
26/08:00pm 12.8 NNE 4 5 1028.0 - 0.2 - - - - - - -

Other Formats:

Comma delimited format used in spreadsheet applications
http://www.bom.gov.au/fwo/IDT60701/IDT60701.94974.axf

JavaScript Object Notation format (JSON) in row-major order
http://www.bom.gov.au/fwo/IDT60701/IDT60701.94974.json